Time;durP1;ratioP1;P1;durP2;ratioP2;P2;SDS_P1;SDS_P2;PMS_P1;PMS_P2;Temp;Humidity;BMP_temperature;BMP_pressure;BME280_temperature;BME280_humidity;BME280_pressure;Samples;Min_cycle;Max_cycle;Signal;HPM_P1;HPM_P2
2023/07/09 00:02:01;;;;;;;8.80;6.35;;;22.10;94.60;;;;;;5080666;28;20040;-78
2023/07/09 00:04:28;;;;;;;11.85;6.85;;;22.00;94.60;;;;;;5097813;28;20039;-78
2023/07/09 00:06:58;;;;;;;11.90;6.85;;;22.00;94.70;;;;;;5071975;28;20041;-77
2023/07/09 00:09:23;;;;;;;11.27;6.78;;;22.00;94.80;;;;;;5081924;28;20486;-79
2023/07/09 00:11:49;;;;;;;12.48;6.70;;;22.00;94.90;;;;;;5088198;28;20116;-78
2023/07/09 00:14:16;;;;;;;10.43;6.55;;;21.90;95.00;;;;;;5092742;28;20217;-78
2023/07/09 00:16:44;;;;;;;8.63;6.73;;;21.90;95.20;;;;;;5085303;28;20504;-79
2023/07/09 00:19:19;;;;;;;8.80;6.82;;;21.90;95.10;;;;;;5074481;28;20048;-78
2023/07/09 00:21:46;;;;;;;8.13;6.22;;;21.90;95.40;;;;;;5090263;28;20040;-78
2023/07/09 00:24:12;;;;;;;13.23;7.13;;;21.80;95.50;;;;;;5095549;28;20044;-78
2023/07/09 00:26:40;;;;;;;14.40;7.00;;;21.80;95.70;;;;;;5097249;28;20036;-79
2023/07/09 00:29:10;;;;;;;;;;;21.80;95.80;;;;;;5075188;28;20069;-79
2023/07/09 00:31:38;;;;;;;12.55;6.97;;;21.80;96.10;;;;;;5095989;28;19959;-78
2023/07/09 00:34:04;;;;;;;7.93;6.57;;;21.70;95.90;;;;;;5111674;28;20059;-79
2023/07/09 00:36:33;;;;;;;8.60;6.78;;;21.70;96.00;;;;;;5091671;28;20040;-78
2023/07/09 00:39:04;;;;;;;9.80;6.97;;;21.70;96.10;;;;;;5092714;28;20036;-78
2023/07/09 00:41:33;;;;;;;10.27;7.03;;;21.60;96.10;;;;;;5096479;28;20044;-78
2023/07/09 00:44:20;;;;;;;10.27;6.65;;;21.60;96.40;;;;;;5090944;28;20390;-78
2023/07/09 00:46:48;;;;;;;10.52;7.60;;;21.60;96.40;;;;;;5075959;28;20043;-78
2023/07/09 00:49:35;;;;;;;12.82;8.27;;;21.60;96.50;;;;;;5075525;28;20086;-78
2023/07/09 00:52:17;;;;;;;13.32;8.02;;;21.60;96.60;;;;;;5075543;28;20044;-78
2023/07/09 00:54:46;;;;;;;12.95;7.95;;;21.60;96.80;;;;;;5090908;28;20065;-78
2023/07/09 00:57:17;;;;;;;9.85;7.78;;;21.50;96.90;;;;;;5092223;28;20072;-79
2023/07/09 00:59:46;;;;;;;10.45;7.03;;;21.50;97.10;;;;;;5093021;28;20111;-78
2023/07/09 01:02:12;;;;;;;10.18;7.68;;;21.50;97.10;;;;;;5095918;28;20040;-77
2023/07/09 01:04:39;;;;;;;8.57;6.47;;;21.40;97.20;;;;;;5079723;28;20104;-78
2023/07/09 01:07:04;;;;;;;10.50;7.43;;;21.40;97.30;;;;;;5075024;28;20506;-78
2023/07/09 01:09:30;;;;;;;9.40;6.97;;;21.40;97.40;;;;;;5075976;28;20049;-78
2023/07/09 01:12:00;;;;;;;10.70;7.28;;;21.40;97.50;;;;;;5085934;28;20064;-78
2023/07/09 01:14:28;;;;;;;8.80;7.30;;;21.40;97.60;;;;;;5090146;28;20058;-78
2023/07/09 01:16:59;;;;;;;11.80;6.50;;;21.30;97.60;;;;;;5102575;28;20040;-79
2023/07/09 01:19:28;;;;;;;10.82;7.05;;;21.30;97.80;;;;;;5109320;28;20048;-77
2023/07/09 01:21:59;;;;;;;10.18;6.80;;;21.30;97.80;;;;;;5098127;28;20036;-78
2023/07/09 01:24:52;;;;;;;11.07;7.22;;;21.30;98.10;;;;;;5097077;28;20044;-78
2023/07/09 01:27:28;;;;;;;12.40;6.50;;;21.30;98.30;;;;;;5099984;28;20044;-78
2023/07/09 01:29:55;;;;;;;9.35;6.80;;;21.30;98.20;;;;;;5091248;28;20417;-78
2023/07/09 01:32:22;;;;;;;14.13;7.60;;;21.20;98.30;;;;;;5087145;28;20051;-78
2023/07/09 01:34:53;;;;;;;9.73;6.80;;;21.30;98.40;;;;;;5097674;28;20071;-79
2023/07/09 01:37:23;;;;;;;9.25;7.55;;;21.10;98.50;;;;;;5092464;28;20040;-78
2023/07/09 01:39:50;;;;;;;12.20;6.78;;;21.20;98.60;;;;;;5097681;28;20043;-78
2023/07/09 01:42:18;;;;;;;14.13;7.20;;;21.10;98.80;;;;;;5105952;28;20169;-78
2023/07/09 01:44:45;;;;;;;9.18;6.75;;;21.10;99.00;;;;;;5116644;28;20040;-78
2023/07/09 01:47:11;;;;;;;;;;;21.00;99.20;;;;;;5113140;28;20221;-77
2023/07/09 01:49:39;;;;;;;15.77;7.47;;;21.00;99.70;;;;;;5092982;28;19919;-77
2023/07/09 01:52:08;;;;;;;9.55;7.38;;;21.00;99.60;;;;;;5097314;28;20100;-78
2023/07/09 01:54:39;;;;;;;12.88;7.22;;;20.90;99.50;;;;;;5088788;28;20068;-79
2023/07/09 01:57:22;;;;;;;9.88;7.80;;;20.90;99.60;;;;;;5095824;28;20079;-78
2023/07/09 01:59:49;;;;;;;10.50;7.70;;;20.90;99.70;;;;;;5096867;28;20109;-77
2023/07/09 02:02:18;;;;;;;10.40;7.73;;;20.90;99.60;;;;;;5098921;28;20510;-78
2023/07/09 02:04:49;;;;;;;12.10;7.80;;;20.90;99.60;;;;;;5079634;28;20808;-77
2023/07/09 02:07:15;;;;;;;13.65;7.28;;;20.90;99.60;;;;;;5090915;28;20375;-77
2023/07/09 02:09:41;;;;;;;13.85;7.15;;;20.90;99.70;;;;;;5078134;28;20052;-77
2023/07/09 02:12:07;;;;;;;12.30;6.97;;;20.80;99.80;;;;;;5078255;28;20043;-78
2023/07/09 02:14:33;;;;;;;9.45;7.10;;;20.90;99.80;;;;;;5094249;28;20487;-78
2023/07/09 02:16:59;;;;;;;14.13;7.45;;;20.80;99.90;;;;;;5079054;28;20048;-77
2023/07/09 02:19:24;;;;;;;12.30;7.45;;;20.70;99.90;;;;;;5082615;28;20019;-78
2023/07/09 02:21:50;;;;;;;16.50;7.45;;;20.70;99.90;;;;;;5095773;28;20044;-78
2023/07/09 02:24:15;;;;;;;11.45;7.32;;;20.70;99.90;;;;;;5098814;28;20047;-77
2023/07/09 02:26:41;;;;;;;10.75;6.93;;;20.60;99.90;;;;;;5078865;28;20133;-78
2023/07/09 02:29:07;;;;;;;9.20;6.38;;;20.60;99.90;;;;;;5090194;28;20040;-78
2023/07/09 02:31:33;;;;;;;9.30;7.03;;;20.60;99.90;;;;;;5094292;28;20119;-78
2023/07/09 02:33:59;;;;;;;12.27;6.88;;;20.60;99.90;;;;;;5082293;28;20079;-77
2023/07/09 02:36:25;;;;;;;10.07;7.88;;;20.60;99.90;;;;;;5094743;28;20032;-77
2023/07/09 02:38:51;;;;;;;10.23;8.07;;;20.50;99.90;;;;;;5087206;28;20187;-79
2023/07/09 02:41:16;;;;;;;12.18;7.70;;;20.50;99.90;;;;;;5096305;28;20043;-78
2023/07/09 02:43:42;;;;;;;11.65;7.85;;;20.50;99.90;;;;;;5094773;28;20047;-78
2023/07/09 02:46:08;;;;;;;13.85;7.32;;;20.50;99.90;;;;;;5078275;28;20490;-78
2023/07/09 02:48:33;;;;;;;9.02;7.43;;;20.40;99.90;;;;;;5077889;28;20045;-77
2023/07/09 02:50:59;;;;;;;12.68;7.32;;;20.40;99.90;;;;;;5081045;28;20044;-77
2023/07/09 02:53:25;;;;;;;12.88;8.65;;;20.40;99.90;;;;;;5100599;28;20044;-78
2023/07/09 02:55:51;;;;;;;12.57;9.57;;;20.40;99.90;;;;;;5083902;28;20172;-78
2023/07/09 02:58:17;;;;;;;12.00;9.13;;;20.40;99.90;;;;;;5092938;28;20023;-77
2023/07/09 03:00:42;;;;;;;12.18;8.70;;;20.30;99.90;;;;;;5092596;28;20051;-78
2023/07/09 03:03:08;;;;;;;14.63;8.40;;;20.30;99.90;;;;;;5106403;28;20050;-78
2023/07/09 03:05:34;;;;;;;11.88;7.78;;;20.30;99.90;;;;;;5094710;28;20028;-77
2023/07/09 03:08:00;;;;;;;10.57;7.68;;;20.30;99.90;;;;;;5084259;28;20098;-78
2023/07/09 03:10:28;;;;;;;12.98;7.75;;;20.30;99.90;;;;;;5092913;28;20147;-78
2023/07/09 03:12:53;;;;;;;12.45;7.28;;;20.20;99.90;;;;;;5086059;28;20040;-77
2023/07/09 03:15:19;;;;;;;10.55;7.75;;;20.20;99.90;;;;;;5072653;28;20474;-78
2023/07/09 03:17:44;;;;;;;11.38;7.18;;;20.20;99.90;;;;;;5076853;28;20072;-78
2023/07/09 03:20:11;;;;;;;13.95;7.32;;;20.20;99.90;;;;;;5080931;28;20474;-78
2023/07/09 03:22:36;;;;;;;9.52;7.22;;;20.20;99.90;;;;;;5093694;28;20046;-78
2023/07/09 03:25:02;;;;;;;10.10;7.65;;;20.10;99.90;;;;;;5094769;28;20111;-78
2023/07/09 03:27:28;;;;;;;11.90;7.95;;;20.10;99.90;;;;;;5093691;28;20032;-78
2023/07/09 03:29:53;;;;;;;11.35;8.25;;;20.10;99.90;;;;;;5082534;28;20037;-78
2023/07/09 03:32:19;;;;;;;12.70;7.88;;;20.10;99.90;;;;;;5084225;28;20039;-78
2023/07/09 03:34:45;;;;;;;11.20;7.95;;;20.10;99.90;;;;;;5089789;28;20121;-78
2023/07/09 03:37:10;;;;;;;11.13;7.85;;;20.00;99.90;;;;;;5089488;28;20040;-77
2023/07/09 03:39:36;;;;;;;12.52;8.55;;;20.00;99.90;;;;;;5083978;28;20371;-77
2023/07/09 03:42:02;;;;;;;11.65;8.40;;;20.00;99.90;;;;;;5095159;28;20040;-77
2023/07/09 03:44:27;;;;;;;10.13;7.60;;;20.00;99.90;;;;;;5079373;28;20170;-78
2023/07/09 03:46:53;;;;;;;10.75;7.60;;;20.00;99.90;;;;;;5087230;28;20044;-78
2023/07/09 03:49:19;;;;;;;13.02;8.10;;;20.00;99.90;;;;;;5081816;28;20043;-78
2023/07/09 03:51:44;;;;;;;12.40;8.32;;;20.00;99.90;;;;;;5087553;28;20052;-78
2023/07/09 03:54:10;;;;;;;9.52;7.45;;;20.00;99.90;;;;;;5080852;28;20124;-77
2023/07/09 03:56:37;;;;;;;13.35;8.27;;;20.10;99.90;;;;;;5085987;28;20531;-78
2023/07/09 03:59:02;;;;;;;10.65;8.20;;;20.10;99.90;;;;;;5073226;28;20045;-77
2023/07/09 04:01:28;;;;;;;13.15;8.45;;;20.10;99.90;;;;;;5093097;28;20040;-78
2023/07/09 04:03:53;;;;;;;12.70;8.32;;;20.10;99.90;;;;;;5085184;28;20123;-78
2023/07/09 04:06:19;;;;;;;12.98;8.18;;;20.10;99.90;;;;;;5096017;28;20086;-78
2023/07/09 04:08:45;;;;;;;10.02;7.43;;;20.10;99.90;;;;;;5087606;28;20040;-78
2023/07/09 04:11:10;;;;;;;12.18;8.20;;;20.20;99.90;;;;;;5093582;28;20041;-78
2023/07/09 04:13:36;;;;;;;10.85;7.50;;;20.20;99.90;;;;;;5081033;28;20063;-77
2023/07/09 04:16:02;;;;;;;13.18;7.80;;;20.20;99.90;;;;;;5088238;28;20044;-78
2023/07/09 04:18:27;;;;;;;9.38;7.63;;;20.20;99.90;;;;;;5074763;28;20040;-78
2023/07/09 04:20:53;;;;;;;18.80;9.20;;;20.20;99.90;;;;;;5088090;28;20040;-78
2023/07/09 04:23:19;;;;;;;15.75;8.43;;;20.30;99.90;;;;;;5091779;28;20039;-79
2023/07/09 04:25:45;;;;;;;14.60;8.80;;;20.30;99.90;;;;;;5088926;28;20036;-77
2023/07/09 04:28:11;;;;;;;11.05;7.55;;;20.30;99.90;;;;;;5101511;28;20044;-78
2023/07/09 04:30:37;;;;;;;12.30;8.30;;;20.30;99.90;;;;;;5085282;28;20047;-78
2023/07/09 04:33:03;;;;;;;13.40;7.60;;;20.30;99.90;;;;;;5085800;28;20041;-79
2023/07/09 04:35:28;;;;;;;10.68;7.97;;;20.40;99.90;;;;;;5084205;28;20051;-78
2023/07/09 04:37:54;;;;;;;12.30;7.85;;;20.40;99.90;;;;;;5106166;28;20126;-78
2023/07/09 04:40:20;;;;;;;15.23;8.38;;;20.40;99.90;;;;;;5109182;28;20048;-78
2023/07/09 04:42:46;;;;;;;10.57;8.00;;;20.50;99.90;;;;;;5091543;28;20044;-78
2023/07/09 04:45:12;;;;;;;13.45;8.10;;;20.50;99.90;;;;;;5108083;28;20036;-78
2023/07/09 04:47:38;;;;;;;12.88;7.93;;;20.50;99.90;;;;;;5109857;28;20051;-78
2023/07/09 04:50:06;;;;;;;12.95;7.95;;;20.50;99.90;;;;;;5098969;28;20044;-78
2023/07/09 04:52:31;;;;;;;12.77;8.68;;;20.60;99.90;;;;;;5084207;28;20502;-79
2023/07/09 04:54:57;;;;;;;14.05;8.43;;;20.60;99.90;;;;;;5084818;28;20093;-78
2023/07/09 04:57:24;;;;;;;15.88;7.82;;;20.60;99.90;;;;;;5099207;28;20044;-78
2023/07/09 04:59:50;;;;;;;11.77;8.20;;;20.70;99.90;;;;;;5099643;28;20040;-78
2023/07/09 05:02:16;;;;;;;12.25;8.32;;;20.70;99.90;;;;;;5108115;28;20146;-77
2023/07/09 05:04:41;;;;;;;9.70;7.88;;;20.80;99.90;;;;;;5111488;28;20044;-78
2023/07/09 05:07:07;;;;;;;13.68;7.93;;;20.80;99.90;;;;;;5086025;28;20062;-78
2023/07/09 05:09:33;;;;;;;12.73;8.20;;;20.80;99.90;;;;;;5090450;28;20041;-78
2023/07/09 05:12:00;;;;;;;11.38;7.65;;;20.90;99.90;;;;;;5118585;28;20130;-78
2023/07/09 05:14:27;;;;;;;24.13;8.63;;;21.00;99.90;;;;;;5113042;28;20069;-78
2023/07/09 05:16:53;;;;;;;13.00;7.82;;;21.00;99.90;;;;;;5094357;28;20290;-78
2023/07/09 05:19:19;;;;;;;13.23;7.68;;;21.10;99.90;;;;;;5102995;28;20229;-78
2023/07/09 05:21:45;;;;;;;14.85;8.43;;;21.10;99.90;;;;;;5091564;28;20093;-78
2023/07/09 05:24:10;;;;;;;10.25;7.22;;;21.20;99.90;;;;;;5094863;28;20130;-78
2023/07/09 05:26:36;;;;;;;11.02;7.60;;;21.30;99.90;;;;;;5082290;28;20100;-78
2023/07/09 05:29:04;;;;;;;10.45;7.82;;;21.40;99.90;;;;;;5100255;28;20482;-78
2023/07/09 05:31:30;;;;;;;10.50;7.93;;;21.50;99.90;;;;;;5087519;28;20398;-78
2023/07/09 05:33:56;;;;;;;13.55;7.35;;;21.60;99.90;;;;;;5094016;28;20474;-78
2023/07/09 05:36:21;;;;;;;13.63;7.75;;;21.70;99.90;;;;;;5085515;28;20063;-78
2023/07/09 05:38:47;;;;;;;13.02;6.95;;;21.80;99.90;;;;;;5098002;28;20036;-78
2023/07/09 05:41:16;;;;;;;11.57;7.32;;;21.90;99.90;;;;;;5104031;28;20458;-77
2023/07/09 05:43:45;;;;;;;10.52;7.55;;;21.90;99.90;;;;;;5118755;28;20043;-78
2023/07/09 05:46:13;;;;;;;11.55;7.57;;;22.10;99.90;;;;;;5115582;28;20050;-77
2023/07/09 05:48:38;;;;;;;9.27;7.13;;;22.20;99.90;;;;;;5105033;28;20041;-78
2023/07/09 05:51:04;;;;;;;12.80;8.02;;;22.20;99.90;;;;;;5096477;28;20032;-78
2023/07/09 05:53:31;;;;;;;10.52;7.28;;;22.40;99.90;;;;;;5088071;28;20039;-78
2023/07/09 05:55:57;;;;;;;10.10;6.88;;;22.50;99.90;;;;;;5101496;28;20069;-78
2023/07/09 05:58:23;;;;;;;12.73;7.80;;;22.70;99.90;;;;;;5105323;28;20035;-78
2023/07/09 06:00:55;;;;;;;10.85;7.55;;;22.90;99.90;;;;;;5097320;27;20044;-78
2023/07/09 06:03:23;;;;;;;13.55;7.57;;;23.00;99.90;;;;;;5091975;28;20040;-78
2023/07/09 06:05:49;;;;;;;17.88;7.75;;;23.00;99.90;;;;;;5090223;28;20047;-77
2023/07/09 06:08:19;;;;;;;14.68;6.93;;;23.10;99.90;;;;;;5083337;28;20164;-78
2023/07/09 06:10:53;;;;;;;9.93;7.05;;;23.10;99.80;;;;;;5093103;28;20406;-78
2023/07/09 06:13:20;;;;;;;9.93;7.20;;;23.10;99.70;;;;;;5109662;28;20031;-78
2023/07/09 06:15:47;;;;;;;9.43;6.88;;;23.20;99.60;;;;;;5095114;28;20529;-78
2023/07/09 06:18:13;;;;;;;8.80;6.93;;;23.20;99.60;;;;;;5096471;28;20041;-77
2023/07/09 06:20:39;;;;;;;11.48;7.57;;;23.20;99.70;;;;;;5104572;28;20063;-78
2023/07/09 06:23:04;;;;;;;15.18;6.88;;;23.10;99.70;;;;;;5097113;28;20043;-77
2023/07/09 06:25:30;;;;;;;10.77;6.82;;;23.30;99.70;;;;;;5098753;28;20028;-78
2023/07/09 06:27:57;;;;;;;14.10;7.00;;;23.30;99.70;;;;;;5098565;28;20040;-78
2023/07/09 06:30:23;;;;;;;11.73;7.05;;;23.40;99.90;;;;;;5097133;28;20196;-77
2023/07/09 06:32:49;;;;;;;9.93;7.03;;;23.40;99.80;;;;;;5089113;28;20785;-78
2023/07/09 06:35:14;;;;;;;10.93;7.28;;;23.60;99.80;;;;;;5088410;28;20062;-78
2023/07/09 06:37:40;;;;;;;12.27;7.00;;;23.60;99.70;;;;;;5083748;28;20520;-77
2023/07/09 06:40:08;;;;;;;13.32;7.15;;;23.80;99.30;;;;;;5087813;28;20037;-77
2023/07/09 06:42:36;;;;;;;10.70;6.68;;;24.00;99.30;;;;;;5098513;28;20055;-77
2023/07/09 06:45:03;;;;;;;12.88;6.95;;;24.20;99.00;;;;;;5111534;28;20082;-77
2023/07/09 06:47:29;;;;;;;15.35;7.00;;;24.30;98.80;;;;;;5101038;28;20037;-77
2023/07/09 06:49:54;;;;;;;9.65;6.57;;;24.50;98.60;;;;;;5110188;28;20081;-77
2023/07/09 06:52:20;;;;;;;9.32;7.05;;;24.60;98.50;;;;;;5094068;28;20038;-78
2023/07/09 06:54:46;;;;;;;13.52;7.18;;;24.70;98.60;;;;;;5087976;28;20055;-77
2023/07/09 06:57:11;;;;;;;8.65;6.90;;;24.90;98.50;;;;;;5098092;28;20047;-77
2023/07/09 06:59:37;;;;;;;16.05;7.78;;;25.00;98.20;;;;;;5098287;28;20044;-77
2023/07/09 07:02:03;;;;;;;9.70;7.43;;;25.10;97.90;;;;;;5090160;28;20398;-77
2023/07/09 07:04:29;;;;;;;12.18;7.15;;;25.10;97.90;;;;;;5094043;28;20044;-77
2023/07/09 07:06:56;;;;;;;13.48;7.30;;;25.10;97.70;;;;;;5089239;28;20040;-77
2023/07/09 07:09:23;;;;;;;8.68;6.65;;;25.10;97.60;;;;;;5097235;28;20040;-77
2023/07/09 07:11:49;;;;;;;11.38;7.47;;;25.20;97.60;;;;;;5085678;28;20396;-77
2023/07/09 07:14:15;;;;;;;10.55;7.10;;;25.30;97.60;;;;;;5082241;28;20038;-77
2023/07/09 07:16:42;;;;;;;13.07;7.28;;;25.50;97.50;;;;;;5089547;28;20032;-78
2023/07/09 07:19:09;;;;;;;9.32;6.80;;;25.60;97.50;;;;;;5092596;28;20039;-77
2023/07/09 07:21:35;;;;;;;12.57;6.93;;;25.80;97.70;;;;;;5093160;28;20040;-78
2023/07/09 07:24:03;;;;;;;9.68;6.85;;;26.00;97.70;;;;;;5091829;28;20040;-77
2023/07/09 07:26:29;;;;;;;11.63;6.60;;;26.20;97.40;;;;;;5100584;28;20048;-77
2023/07/09 07:28:54;;;;;;;12.63;6.82;;;26.40;97.30;;;;;;5099798;28;20043;-78
2023/07/09 07:31:20;;;;;;;12.32;6.35;;;26.60;97.00;;;;;;5095396;28;20036;-77
2023/07/09 07:33:45;;;;;;;17.95;7.53;;;26.70;96.60;;;;;;5100500;28;20059;-78
2023/07/09 07:36:12;;;;;;;10.73;6.95;;;26.90;96.40;;;;;;5089670;28;20124;-78
2023/07/09 07:38:37;;;;;;;9.15;6.63;;;27.00;96.10;;;;;;5078173;28;20406;-77
2023/07/09 07:41:03;;;;;;;12.27;6.55;;;27.10;96.00;;;;;;5088514;28;20071;-78
2023/07/09 07:43:29;;;;;;;10.80;7.15;;;27.10;95.90;;;;;;5098713;28;20036;-78
2023/07/09 07:45:54;;;;;;;13.20;7.13;;;27.10;96.00;;;;;;5075508;28;20036;-78
2023/07/09 07:48:20;;;;;;;11.90;6.65;;;27.10;95.90;;;;;;5083204;28;20058;-78
2023/07/09 07:50:47;;;;;;;9.98;6.35;;;27.00;95.60;;;;;;5078119;28;20182;-77
2023/07/09 07:53:15;;;;;;;14.18;6.70;;;27.00;95.60;;;;;;5088764;28;22374;-78
2023/07/09 07:55:41;;;;;;;10.60;7.40;;;27.00;95.70;;;;;;5091574;28;20040;-78
2023/07/09 07:58:12;;;;;;;13.17;7.10;;;26.90;95.80;;;;;;5091281;28;20063;-78
2023/07/09 08:00:39;;;;;;;12.73;7.47;;;27.00;95.70;;;;;;5091920;28;20082;-77
2023/07/09 08:03:04;;;;;;;11.17;6.97;;;27.10;95.90;;;;;;5089675;28;20048;-77
2023/07/09 08:05:30;;;;;;;10.48;7.22;;;27.20;96.00;;;;;;5075949;28;20098;-77
2023/07/09 08:07:56;;;;;;;11.68;7.22;;;27.40;96.10;;;;;;5077350;28;20080;-78
2023/07/09 08:10:22;;;;;;;15.48;7.82;;;27.50;96.00;;;;;;5087436;28;20054;-78
2023/07/09 08:12:48;;;;;;;13.35;7.15;;;27.70;95.90;;;;;;5097875;28;20089;-78
2023/07/09 08:15:13;;;;;;;11.15;6.95;;;27.80;95.80;;;;;;5088230;28;20044;-78
2023/07/09 08:17:40;;;;;;;14.98;7.20;;;27.90;95.80;;;;;;5084915;28;20032;-77
2023/07/09 08:20:06;;;;;;;9.95;6.68;;;28.10;95.40;;;;;;5082630;28;20067;-78
2023/07/09 08:22:32;;;;;;;14.45;7.80;;;28.20;95.20;;;;;;5076934;28;20040;-78
2023/07/09 08:24:58;;;;;;;8.68;6.43;;;28.30;95.00;;;;;;5086114;28;20050;-78
2023/07/09 08:27:23;;;;;;;13.88;7.60;;;28.30;94.80;;;;;;5097769;28;20036;-78
2023/07/09 08:29:49;;;;;;;9.55;6.13;;;28.40;94.80;;;;;;5093975;28;20063;-77
2023/07/09 08:32:15;;;;;;;18.33;6.90;;;28.40;94.60;;;;;;5093942;28;20054;-77
2023/07/09 08:34:43;;;;;;;16.95;8.00;;;28.40;94.70;;;;;;5095128;28;20559;-78
2023/07/09 08:37:09;;;;;;;14.70;6.63;;;28.50;94.80;;;;;;5095829;28;20086;-77
2023/07/09 08:39:35;;;;;;;10.52;6.78;;;28.60;94.70;;;;;;5082943;28;20474;-77
2023/07/09 08:42:13;;;;;;;9.35;7.25;;;28.60;94.80;;;;;;5081691;28;20049;-77
2023/07/09 08:44:41;;;;;;;9.57;7.20;;;28.70;94.70;;;;;;5099458;28;20036;-77
2023/07/09 08:47:30;;;;;;;10.32;6.82;;;28.70;94.70;;;;;;5095592;28;20089;-78
2023/07/09 08:50:05;;;;;;;10.10;7.22;;;28.80;94.50;;;;;;5082540;28;20136;-78
2023/07/09 08:52:35;;;;;;;11.70;7.78;;;28.90;94.40;;;;;;5081012;28;20041;-78
2023/07/09 08:55:07;;;;;;;11.55;7.68;;;29.00;94.50;;;;;;5092257;28;20076;-79
2023/07/09 08:57:40;;;;;;;16.33;9.18;;;29.20;94.40;;;;;;5102736;28;20068;-78
2023/07/09 09:00:16;;;;;;;13.90;7.80;;;29.40;93.90;;;;;;5078693;28;20123;-79
2023/07/09 09:03:05;;;;;;;13.07;8.02;;;29.50;93.70;;;;;;5101886;28;20044;-78
2023/07/09 09:05:37;;;;;;;11.25;7.82;;;29.60;93.70;;;;;;5084565;28;20081;-79
2023/07/09 09:08:12;;;;;;;14.90;8.10;;;29.80;93.80;;;;;;5079683;28;20052;-78
2023/07/09 09:10:40;;;;;;;13.63;8.00;;;29.90;93.70;;;;;;5088414;28;20120;-77
2023/07/09 09:13:12;;;;;;;17.60;8.75;;;30.00;93.30;;;;;;5101871;28;20120;-77
2023/07/09 09:15:45;;;;;;;13.98;8.40;;;30.10;92.10;;;;;;5100781;28;20048;-78
2023/07/09 09:18:22;;;;;;;14.55;8.02;;;30.00;92.50;;;;;;5095651;28;20063;-79
2023/07/09 09:20:55;;;;;;;12.70;9.07;;;30.10;92.80;;;;;;5085791;28;20123;-79
2023/07/09 09:23:21;;;;;;;14.18;9.32;;;30.10;92.10;;;;;;5087718;28;20040;-78
2023/07/09 09:25:55;;;;;;;15.90;8.83;;;30.10;92.10;;;;;;5089690;28;20072;-79
2023/07/09 09:28:22;;;;;;;15.38;10.43;;;30.00;92.50;;;;;;5096516;28;20043;-79
2023/07/09 09:30:48;;;;;;;18.40;9.52;;;30.00;92.00;;;;;;5085497;28;20037;-79
2023/07/09 09:33:18;;;;;;;18.63;10.50;;;30.10;91.70;;;;;;5087364;28;20040;-78
2023/07/09 09:35:45;;;;;;;15.45;9.98;;;30.00;92.00;;;;;;5086329;28;20043;-78
2023/07/09 09:38:12;;;;;;;;;;;30.00;92.30;;;;;;5093871;28;20045;-79
2023/07/09 09:40:38;;;;;;;16.38;10.00;;;30.00;92.80;;;;;;5093138;28;20289;-79
2023/07/09 09:43:17;;;;;;;14.35;10.20;;;30.10;92.80;;;;;;5103459;28;20044;-80
2023/07/09 09:45:44;;;;;;;15.88;10.98;;;30.10;92.50;;;;;;5101871;28;20048;-78
2023/07/09 09:48:15;;;;;;;12.65;10.05;;;30.10;92.50;;;;;;5117107;28;20044;-78
2023/07/09 09:50:41;;;;;;;21.38;10.40;;;30.10;92.50;;;;;;5100956;28;20067;-78
2023/07/09 09:53:09;;;;;;;15.23;10.73;;;30.10;92.60;;;;;;5091385;28;20497;-79
2023/07/09 09:55:40;;;;;;;15.82;10.98;;;30.00;92.70;;;;;;5092921;28;20048;-78
2023/07/09 09:58:15;;;;;;;16.58;9.48;;;30.10;92.60;;;;;;5099287;28;20048;-77
2023/07/09 10:00:47;;;;;;;16.23;10.75;;;30.20;92.70;;;;;;5083204;28;20045;-80
2023/07/09 10:03:13;;;;;;;14.40;10.95;;;30.10;92.50;;;;;;5097352;28;20044;-79
2023/07/09 10:05:52;;;;;;;18.67;11.40;;;30.20;92.20;;;;;;5102184;28;20041;-79
2023/07/09 10:09:00;;;;;;;17.10;10.40;;;30.10;92.20;;;;;;5088425;28;20033;-79
2023/07/09 10:12:11;;;;;;;15.15;10.02;;;30.10;92.40;;;;;;5083371;28;20109;-79
2023/07/09 10:14:59;;;;;;;12.75;9.13;;;30.10;93.00;;;;;;5081523;28;20193;-80
2023/07/09 10:17:31;;;;;;;18.55;11.00;;;30.10;92.80;;;;;;5089538;28;20375;-78
2023/07/09 10:20:16;;;;;;;14.80;9.63;;;30.20;91.90;;;;;;5108092;28;20055;-78
2023/07/09 10:23:02;;;;;;;13.65;9.38;;;30.10;92.30;;;;;;5081467;28;20096;-79
2023/07/09 10:25:54;;;;;;;13.15;10.02;;;30.20;92.60;;;;;;5079927;28;20043;-78
2023/07/09 10:28:55;;;;;;;21.92;10.82;;;30.30;92.20;;;;;;5089446;28;20040;-79
2023/07/09 10:31:55;;;;;;;16.90;10.55;;;30.30;92.30;;;;;;5101671;28;20040;-79
2023/07/09 10:34:34;;;;;;;18.80;10.70;;;30.40;92.00;;;;;;5095683;28;20048;-79
2023/07/09 10:37:19;;;;;;;14.23;9.90;;;30.50;92.00;;;;;;5079535;28;20443;-78
2023/07/09 10:39:51;;;;;;;14.98;9.43;;;30.40;91.90;;;;;;5113966;28;20489;-78
2023/07/09 10:42:30;;;;;;;17.42;11.40;;;30.30;91.90;;;;;;5085884;28;20024;-79
2023/07/09 10:45:26;;;;;;;14.30;9.50;;;30.20;91.50;;;;;;5099923;28;20127;-79
2023/07/09 10:47:59;;;;;;;12.98;8.60;;;30.20;91.90;;;;;;5081425;28;20051;-78
2023/07/09 10:50:33;;;;;;;14.85;10.00;;;30.40;92.50;;;;;;5089291;28;20037;-79
2023/07/09 10:53:13;;;;;;;12.68;10.30;;;30.70;91.90;;;;;;5081792;28;20048;-79
2023/07/09 10:55:49;;;;;;;17.58;10.55;;;30.80;91.30;;;;;;5086359;28;20033;-79
2023/07/09 10:58:39;;;;;;;13.00;9.05;;;30.90;90.80;;;;;;5097403;28;20044;-78
2023/07/09 11:01:05;;;;;;;18.63;9.52;;;30.90;91.60;;;;;;5104381;28;20040;-79
2023/07/09 11:03:54;;;;;;;15.82;10.13;;;31.10;91.80;;;;;;5095109;28;20032;-78
2023/07/09 11:06:27;;;;;;;20.10;10.25;;;31.30;90.70;;;;;;5092816;28;20391;-80
2023/07/09 11:08:56;;;;;;;14.90;8.57;;;31.30;91.10;;;;;;5095486;28;20056;-78
2023/07/09 11:11:40;;;;;;;13.38;9.40;;;31.40;91.40;;;;;;5078131;28;20068;-79
2023/07/09 11:14:30;;;;;;;13.50;8.55;;;31.60;91.20;;;;;;5078343;28;20505;-78
2023/07/09 11:16:58;;;;;;;12.07;7.93;;;31.70;91.10;;;;;;5079382;28;20060;-79
2023/07/09 11:19:24;;;;;;;13.75;8.15;;;31.90;90.00;;;;;;5079367;28;20044;-78
2023/07/09 11:22:31;;;;;;;10.18;6.97;;;31.80;89.60;;;;;;5080546;28;20043;-79
2023/07/09 11:25:10;;;;;;;11.32;7.93;;;31.80;90.10;;;;;;5080658;28;20049;-81
2023/07/09 11:27:46;;;;;;;13.27;7.95;;;31.80;88.50;;;;;;5089552;28;20032;-79
2023/07/09 11:30:20;;;;;;;10.90;7.68;;;31.90;87.60;;;;;;5086739;28;20048;-79
2023/07/09 11:32:46;;;;;;;14.63;7.82;;;31.90;88.00;;;;;;5100277;28;20048;-78
2023/07/09 11:35:25;;;;;;;11.10;8.30;;;31.90;87.70;;;;;;5098463;28;20044;-79
2023/07/09 11:37:53;;;;;;;13.88;9.10;;;31.80;89.80;;;;;;5079422;28;20456;-79
2023/07/09 11:40:20;;;;;;;13.85;8.88;;;32.00;88.50;;;;;;5099816;28;20048;-80
2023/07/09 11:42:56;;;;;;;;;;;31.90;88.80;;;;;;5085182;28;20115;-79
2023/07/09 11:45:28;;;;;;;19.65;8.38;;;32.00;89.40;;;;;;5097376;28;20107;-80
2023/07/09 11:48:14;;;;;;;13.70;8.50;;;32.20;89.00;;;;;;5098156;28;20132;-79
2023/07/09 11:50:46;;;;;;;11.68;8.50;;;32.30;88.70;;;;;;5094721;28;20037;-80
2023/07/09 11:53:37;;;;;;;11.05;8.50;;;32.50;87.40;;;;;;5078417;28;20060;-78
2023/07/09 11:56:04;;;;;;;22.00;9.38;;;32.40;88.10;;;;;;5093600;28;20051;-78
2023/07/09 11:58:29;;;;;;;19.35;9.52;;;32.40;88.40;;;;;;5086678;28;20079;-78
2023/07/09 12:00:58;;;;;;;17.40;9.70;;;32.30;87.60;;;;;;5096028;28;20040;-79
2023/07/09 12:03:34;;;;;;;17.63;7.80;;;32.20;88.20;;;;;;5095001;28;20055;-80
2023/07/09 12:06:18;;;;;;;12.00;8.33;;;32.20;88.60;;;;;;5094994;28;20044;-80
2023/07/09 12:08:46;;;;;;;11.00;8.25;;;32.20;88.70;;;;;;5097001;28;20102;-78
2023/07/09 12:11:30;;;;;;;10.95;7.38;;;32.40;87.70;;;;;;5089065;28;20039;-78
2023/07/09 12:14:06;;;;;;;15.75;8.20;;;32.30;88.50;;;;;;5087505;28;20040;-78
2023/07/09 12:16:36;;;;;;;15.80;8.93;;;32.40;88.10;;;;;;5097731;28;20054;-78
2023/07/09 12:19:02;;;;;;;12.45;8.52;;;32.60;87.30;;;;;;5096068;28;20474;-79
2023/07/09 12:21:30;;;;;;;10.98;7.57;;;32.60;87.80;;;;;;5098654;28;20047;-79
2023/07/09 12:23:55;;;;;;;14.02;8.20;;;32.70;86.60;;;;;;5094067;28;20131;-78
2023/07/09 12:26:22;;;;;;;9.40;7.57;;;32.60;87.50;;;;;;5091177;28;20068;-80
2023/07/09 12:28:56;;;;;;;7.72;6.45;;;32.60;87.90;;;;;;5087866;28;20028;-80
2023/07/09 12:31:29;;;;;;;9.48;6.28;;;32.70;83.30;;;;;;5100643;28;20048;-78
2023/07/09 12:33:57;;;;;;;11.90;6.50;;;32.70;82.40;;;;;;5089881;28;20048;-79
2023/07/09 12:36:25;;;;;;;12.82;6.78;;;32.60;82.80;;;;;;5075374;28;20059;-80
2023/07/09 12:38:55;;;;;;;12.75;6.97;;;32.70;81.90;;;;;;5076197;28;20060;-79
2023/07/09 12:41:25;;;;;;;10.45;6.20;;;32.70;81.50;;;;;;5075090;28;20093;-79
2023/07/09 12:43:53;;;;;;;10.13;6.78;;;32.60;82.00;;;;;;5091549;28;20040;-79
2023/07/09 12:46:20;;;;;;;9.23;6.70;;;32.50;81.80;;;;;;5096908;28;20118;-80
2023/07/09 12:48:50;;;;;;;10.50;6.90;;;32.50;81.40;;;;;;5078469;28;20074;-80
2023/07/09 12:51:24;;;;;;;11.75;6.95;;;32.50;81.10;;;;;;5077792;28;20041;-80